Search found 2544 matches

by AviaView
11 Dec 2020, 15:08
Forum: Aviation Photo Forum
Topic: Porto - Francisco Sá Carneiro (LPPR/OPO) - 11-12-2020
Replies: 1
Views: 939

Porto - Francisco Sá Carneiro (LPPR/OPO) - 11-12-2020

Crew Training with the Airbus A330-700 Beluga XL. https://www.aviaview.net/wp-content/uploads/2020/12/IMG_3597.jpg https://www.aviaview.net/wp-content/uploads/2020/12/IMG_3562.jpg https://www.aviaview.net/wp-content/uploads/2020/12/IMG_3580.jpg https://www.aviaview.net/wp-content/uploads/2020/12/IMG...
by AviaView
03 Nov 2020, 13:31
Forum: Lelystad
Topic: EHLE 03-11-20
Replies: 45
Views: 4896

Re: EHLE 03-11-20

falcon01 wrote: 03 Nov 2020, 13:09 What wil be the parking place?
Most likely D-Apron (next to the tower).
Alternatively they could go to the F-apron to the Zeusch Aviation Hangar (but I don't know if an airplane this size is allowed to taxi to that apron)
by AviaView
28 Aug 2020, 23:57
Forum: Lelystad
Topic: EHLE 28-08-2020
Replies: 3
Views: 622

Re: EHLE 28-08-2020

cyclingdutchman wrote:Seen a couple of days ago N125DE CN 193 on approach acc fr 24 anyone

Adriaan.
Based aircraft.
by AviaView
28 Jul 2020, 16:05
Forum: Aviation Photo Forum
Topic: Porto - Francisco Sá Carneiro (LPPR/OPO) - 26-07-2020
Replies: 5
Views: 1873

Re: Porto - Francisco Sá Carneiro (LPPR/OPO) - 26-07-2020

Thanks for the comments, gents! It looks like we were quite close to each other. If you don't mind me jumping in on your posts, my views on the LX-LGU arrival. No problem! That's where the topic is for ;) Looks we were close indeed, if you see a Dutch car driving around, it's probably me! Great pics...
by AviaView
26 Jul 2020, 21:10
Forum: Aviation Photo Forum
Topic: Porto - Francisco Sá Carneiro (LPPR/OPO) - 26-07-2020
Replies: 5
Views: 1873

Porto - Francisco Sá Carneiro (LPPR/OPO) - 26-07-2020

Some images from my side again...It's been a while. https://www.aviaview.net/wp-content/uploads/2020/07/LX-LGU-Boeing-737-800-Luxair-OPO-2.jpg https://www.aviaview.net/wp-content/uploads/2020/07/LX-LGU-Boeing-737-800-Luxair-OPO.jpg https://www.aviaview.net/wp-content/uploads/2020/07/CS-TSG-Airbus-A3...
by AviaView
23 Apr 2020, 14:43
Forum: Helispot
Topic: Helicopter sightings the Netherlands - 2020
Replies: 32
Views: 7279

Re: Helicopter sightings the Netherlands - 2020

23/04

Heli Holland Emmen
Full grey EC-120B
OM-MAY EC120B
PH-HHB S269D
N353CE AS350B
OK-EUP EC120B testflight (?)
by AviaView
15 Apr 2020, 19:56
Forum: Aviation Video Forum
Topic: CATIIIA ILS Approach Boeing 737-800 Lights Off Cockpit View
Replies: 0
Views: 267

CATIIIA ILS Approach Boeing 737-800 Lights Off Cockpit View



METAR:

Code: Select all

SA 26/12/2019 19:50-> METAR EGNM 261950Z 02004KT 340V050 0400 R32/0450 -DZ FG VV/// 04/04 Q1016=

SA 26/12/2019 19:20-> METAR EGNM 261920Z 03004KT 0300 R32/0400 -DZ FG VV/// 04/04 Q1016=